Terminal Aerodrome Forecast
Issued by NWS

Current Version | Previous Version | Graphics & Text | Print | Product List | Glossary On
Versions: 1 2 3 4 5 6 7 8 9 10 11 12 13 14 15 16 17 18 19 20 21 22 23 24 25 26 27
000
FTUS41 KPBZ 161100
TAFHLG
TAF
KHLG 161126Z 1612/1712 16007KT 5SM -SHRA OVC030
     FM161400 16006KT 4SM -SHRA BR OVC015
     FM162100 20006KT 3SM -SHRA OVC010
     FM170300 24010G20KT 2SM BR OVC008=

USA.gov is the U.S. government's official web portal to all federal, state and local government web resources and services.